sensor_id;sensor_type;location;lat;lon;timestamp;P1;durP1;ratioP1;P2;durP2;ratioP2
59308;SDS011;48433;53.016;-2.260;2023-05-25T00:00:43;10.38;;;3.67;;
59308;SDS011;48433;53.016;-2.260;2023-05-25T00:03:27;11.02;;;4.05;;
59308;SDS011;48433;53.016;-2.260;2023-05-25T00:05:58;8.43;;;3.53;;
59308;SDS011;48433;53.016;-2.260;2023-05-25T00:08:29;14.77;;;3.93;;
59308;SDS011;48433;53.016;-2.260;2023-05-25T00:10:56;11.02;;;3.95;;
59308;SDS011;48433;53.016;-2.260;2023-05-25T00:13:24;13.63;;;4.20;;
59308;SDS011;48433;53.016;-2.260;2023-05-25T00:15:52;8.50;;;3.80;;
59308;SDS011;48433;53.016;-2.260;2023-05-25T00:18:19;9.10;;;3.58;;
59308;SDS011;48433;53.016;-2.260;2023-05-25T00:20:47;8.90;;;3.38;;
59308;SDS011;48433;53.016;-2.260;2023-05-25T00:23:15;9.55;;;4.05;;
59308;SDS011;48433;53.016;-2.260;2023-05-25T00:25:42;8.73;;;3.47;;
59308;SDS011;48433;53.016;-2.260;2023-05-25T00:28:11;11.90;;;4.28;;
59308;SDS011;48433;53.016;-2.260;2023-05-25T00:30:38;10.40;;;3.95;;
59308;SDS011;48433;53.016;-2.260;2023-05-25T00:33:06;9.65;;;4.50;;
59308;SDS011;48433;53.016;-2.260;2023-05-25T00:35:36;12.93;;;4.88;;
59308;SDS011;48433;53.016;-2.260;2023-05-25T00:38:04;9.98;;;4.35;;
59308;SDS011;48433;53.016;-2.260;2023-05-25T00:40:32;11.38;;;4.40;;
59308;SDS011;48433;53.016;-2.260;2023-05-25T00:43:01;10.05;;;4.13;;
59308;SDS011;48433;53.016;-2.260;2023-05-25T00:45:29;8.75;;;4.50;;
59308;SDS011;48433;53.016;-2.260;2023-05-25T00:47:56;8.80;;;4.63;;
59308;SDS011;48433;53.016;-2.260;2023-05-25T00:50:40;10.52;;;3.97;;
59308;SDS011;48433;53.016;-2.260;2023-05-25T00:53:09;14.65;;;4.10;;
59308;SDS011;48433;53.016;-2.260;2023-05-25T00:55:48;10.10;;;4.25;;
59308;SDS011;48433;53.016;-2.260;2023-05-25T01:00:49;10.13;;;4.10;;
59308;SDS011;48433;53.016;-2.260;2023-05-25T01:03:19;10.68;;;4.90;;
59308;SDS011;48433;53.016;-2.260;2023-05-25T01:05:49;13.05;;;5.07;;
59308;SDS011;48433;53.016;-2.260;2023-05-25T01:10:50;11.95;;;4.75;;
59308;SDS011;48433;53.016;-2.260;2023-05-25T01:13:20;9.50;;;4.68;;
59308;SDS011;48433;53.016;-2.260;2023-05-25T01:15:47;13.57;;;5.40;;
59308;SDS011;48433;53.016;-2.260;2023-05-25T01:18:17;11.13;;;4.63;;
59308;SDS011;48433;53.016;-2.260;2023-05-25T01:23:19;12.52;;;4.57;;
59308;SDS011;48433;53.016;-2.260;2023-05-25T01:25:54;13.13;;;4.45;;
59308;SDS011;48433;53.016;-2.260;2023-05-25T01:28:29;13.38;;;4.88;;
59308;SDS011;48433;53.016;-2.260;2023-05-25T01:31:01;11.38;;;4.65;;
59308;SDS011;48433;53.016;-2.260;2023-05-25T01:33:29;12.45;;;4.60;;
59308;SDS011;48433;53.016;-2.260;2023-05-25T01:35:58;11.32;;;4.45;;
59308;SDS011;48433;53.016;-2.260;2023-05-25T01:38:27;11.00;;;4.72;;
59308;SDS011;48433;53.016;-2.260;2023-05-25T01:40:54;11.57;;;4.43;;
59308;SDS011;48433;53.016;-2.260;2023-05-25T01:43:22;9.10;;;3.70;;
59308;SDS011;48433;53.016;-2.260;2023-05-25T01:45:50;10.65;;;4.07;;
59308;SDS011;48433;53.016;-2.260;2023-05-25T01:51:35;9.20;;;4.57;;
59308;SDS011;48433;53.016;-2.260;2023-05-25T01:54:17;11.02;;;3.63;;
59308;SDS011;48433;53.016;-2.260;2023-05-25T01:56:46;10.20;;;4.75;;
59308;SDS011;48433;53.016;-2.260;2023-05-25T01:59:19;11.77;;;4.38;;
59308;SDS011;48433;53.016;-2.260;2023-05-25T02:01:47;12.45;;;4.88;;
59308;SDS011;48433;53.016;-2.260;2023-05-25T02:04:19;10.73;;;4.07;;
59308;SDS011;48433;53.016;-2.260;2023-05-25T02:06:50;14.68;;;5.28;;
59308;SDS011;48433;53.016;-2.260;2023-05-25T02:09:19;10.75;;;4.30;;
59308;SDS011;48433;53.016;-2.260;2023-05-25T02:11:48;11.38;;;4.40;;
59308;SDS011;48433;53.016;-2.260;2023-05-25T02:14:17;10.40;;;3.92;;
59308;SDS011;48433;53.016;-2.260;2023-05-25T02:16:44;9.75;;;4.05;;
59308;SDS011;48433;53.016;-2.260;2023-05-25T02:19:12;11.93;;;4.28;;
59308;SDS011;48433;53.016;-2.260;2023-05-25T02:21:42;9.38;;;3.78;;
59308;SDS011;48433;53.016;-2.260;2023-05-25T02:24:10;8.98;;;3.90;;
59308;SDS011;48433;53.016;-2.260;2023-05-25T02:26:38;11.20;;;4.40;;
59308;SDS011;48433;53.016;-2.260;2023-05-25T02:29:07;12.25;;;4.50;;
59308;SDS011;48433;53.016;-2.260;2023-05-25T02:31:34;11.23;;;4.30;;
59308;SDS011;48433;53.016;-2.260;2023-05-25T02:34:03;11.80;;;4.25;;
59308;SDS011;48433;53.016;-2.260;2023-05-25T02:36:30;9.77;;;3.83;;
59308;SDS011;48433;53.016;-2.260;2023-05-25T02:39:00;19.33;;;5.60;;
59308;SDS011;48433;53.016;-2.260;2023-05-25T02:41:28;9.57;;;3.95;;
59308;SDS011;48433;53.016;-2.260;2023-05-25T02:43:55;9.18;;;3.90;;
59308;SDS011;48433;53.016;-2.260;2023-05-25T02:46:25;13.70;;;4.32;;
59308;SDS011;48433;53.016;-2.260;2023-05-25T02:48:53;10.63;;;3.85;;
59308;SDS011;48433;53.016;-2.260;2023-05-25T02:51:21;13.10;;;4.00;;
59308;SDS011;48433;53.016;-2.260;2023-05-25T02:53:49;9.98;;;4.32;;
59308;SDS011;48433;53.016;-2.260;2023-05-25T02:56:17;11.27;;;4.07;;
59308;SDS011;48433;53.016;-2.260;2023-05-25T02:58:45;12.80;;;3.97;;
59308;SDS011;48433;53.016;-2.260;2023-05-25T03:01:17;10.07;;;4.40;;
59308;SDS011;48433;53.016;-2.260;2023-05-25T03:03:54;11.05;;;4.10;;
59308;SDS011;48433;53.016;-2.260;2023-05-25T03:06:25;13.20;;;4.43;;
59308;SDS011;48433;53.016;-2.260;2023-05-25T03:09:00;10.70;;;4.35;;
59308;SDS011;48433;53.016;-2.260;2023-05-25T03:11:31;11.27;;;3.87;;
59308;SDS011;48433;53.016;-2.260;2023-05-25T03:14:01;12.75;;;3.67;;
59308;SDS011;48433;53.016;-2.260;2023-05-25T03:16:31;11.43;;;4.00;;
59308;SDS011;48433;53.016;-2.260;2023-05-25T03:19:06;12.50;;;4.10;;
59308;SDS011;48433;53.016;-2.260;2023-05-25T03:21:36;13.80;;;3.55;;
59308;SDS011;48433;53.016;-2.260;2023-05-25T03:24:04;10.75;;;4.40;;
59308;SDS011;48433;53.016;-2.260;2023-05-25T03:26:32;10.07;;;3.90;;
59308;SDS011;48433;53.016;-2.260;2023-05-25T03:29:02;11.50;;;4.00;;
59308;SDS011;48433;53.016;-2.260;2023-05-25T03:31:38;10.32;;;4.22;;
59308;SDS011;48433;53.016;-2.260;2023-05-25T03:34:07;10.60;;;3.70;;
59308;SDS011;48433;53.016;-2.260;2023-05-25T03:36:36;8.70;;;3.28;;
59308;SDS011;48433;53.016;-2.260;2023-05-25T03:39:05;11.15;;;3.78;;
59308;SDS011;48433;53.016;-2.260;2023-05-25T03:41:33;9.35;;;3.67;;
59308;SDS011;48433;53.016;-2.260;2023-05-25T03:44:00;10.68;;;3.30;;
59308;SDS011;48433;53.016;-2.260;2023-05-25T03:46:28;12.20;;;3.53;;
59308;SDS011;48433;53.016;-2.260;2023-05-25T03:48:57;11.27;;;3.22;;
59308;SDS011;48433;53.016;-2.260;2023-05-25T03:51:24;8.70;;;3.55;;
59308;SDS011;48433;53.016;-2.260;2023-05-25T03:53:53;9.93;;;3.03;;
59308;SDS011;48433;53.016;-2.260;2023-05-25T03:56:23;11.18;;;3.45;;
59308;SDS011;48433;53.016;-2.260;2023-05-25T03:58:50;13.05;;;3.72;;
59308;SDS011;48433;53.016;-2.260;2023-05-25T04:01:18;8.00;;;3.28;;
59308;SDS011;48433;53.016;-2.260;2023-05-25T04:03:46;10.23;;;3.40;;
59308;SDS011;48433;53.016;-2.260;2023-05-25T04:06:14;9.82;;;3.80;;
59308;SDS011;48433;53.016;-2.260;2023-05-25T04:08:45;12.48;;;3.50;;
59308;SDS011;48433;53.016;-2.260;2023-05-25T04:11:13;13.27;;;3.63;;
59308;SDS011;48433;53.016;-2.260;2023-05-25T04:13:41;12.82;;;3.65;;
59308;SDS011;48433;53.016;-2.260;2023-05-25T04:16:09;14.18;;;3.60;;
59308;SDS011;48433;53.016;-2.260;2023-05-25T04:18:39;10.02;;;3.17;;
59308;SDS011;48433;53.016;-2.260;2023-05-25T04:21:07;15.07;;;4.00;;
59308;SDS011;48433;53.016;-2.260;2023-05-25T04:23:34;10.07;;;3.53;;
59308;SDS011;48433;53.016;-2.260;2023-05-25T04:26:03;12.15;;;4.10;;
59308;SDS011;48433;53.016;-2.260;2023-05-25T04:28:32;14.40;;;3.75;;
59308;SDS011;48433;53.016;-2.260;2023-05-25T04:31:10;11.90;;;3.92;;
59308;SDS011;48433;53.016;-2.260;2023-05-25T04:33:45;9.55;;;3.22;;
59308;SDS011;48433;53.016;-2.260;2023-05-25T04:36:39;13.68;;;4.07;;
59308;SDS011;48433;53.016;-2.260;2023-05-25T04:39:09;13.02;;;4.63;;
59308;SDS011;48433;53.016;-2.260;2023-05-25T04:41:42;11.35;;;3.50;;
59308;SDS011;48433;53.016;-2.260;2023-05-25T04:44:11;12.38;;;4.25;;
59308;SDS011;48433;53.016;-2.260;2023-05-25T04:46:49;12.68;;;4.28;;
59308;SDS011;48433;53.016;-2.260;2023-05-25T04:49:26;12.43;;;4.40;;
59308;SDS011;48433;53.016;-2.260;2023-05-25T04:51:54;17.25;;;4.82;;
59308;SDS011;48433;53.016;-2.260;2023-05-25T04:54:23;12.73;;;4.38;;
59308;SDS011;48433;53.016;-2.260;2023-05-25T04:56:51;13.07;;;4.40;;
59308;SDS011;48433;53.016;-2.260;2023-05-25T04:59:19;9.88;;;4.60;;
59308;SDS011;48433;53.016;-2.260;2023-05-25T05:01:47;14.50;;;4.82;;
59308;SDS011;48433;53.016;-2.260;2023-05-25T05:04:16;9.43;;;4.60;;
59308;SDS011;48433;53.016;-2.260;2023-05-25T05:06:44;12.02;;;4.55;;
59308;SDS011;48433;53.016;-2.260;2023-05-25T05:09:21;13.35;;;4.40;;
59308;SDS011;48433;53.016;-2.260;2023-05-25T05:11:49;9.40;;;3.85;;
59308;SDS011;48433;53.016;-2.260;2023-05-25T05:14:18;16.27;;;4.70;;
59308;SDS011;48433;53.016;-2.260;2023-05-25T05:16:46;17.27;;;5.13;;
59308;SDS011;48433;53.016;-2.260;2023-05-25T05:19:14;9.75;;;3.72;;
59308;SDS011;48433;53.016;-2.260;2023-05-25T05:21:42;9.88;;;4.30;;
59308;SDS011;48433;53.016;-2.260;2023-05-25T05:24:11;12.50;;;4.82;;
59308;SDS011;48433;53.016;-2.260;2023-05-25T05:26:38;11.52;;;4.53;;
59308;SDS011;48433;53.016;-2.260;2023-05-25T05:29:36;13.02;;;4.53;;
59308;SDS011;48433;53.016;-2.260;2023-05-25T05:32:04;15.00;;;4.80;;
59308;SDS011;48433;53.016;-2.260;2023-05-25T05:34:33;12.10;;;4.13;;
59308;SDS011;48433;53.016;-2.260;2023-05-25T05:37:06;16.02;;;4.85;;
59308;SDS011;48433;53.016;-2.260;2023-05-25T05:39:35;11.32;;;4.43;;
59308;SDS011;48433;53.016;-2.260;2023-05-25T05:42:03;15.45;;;4.85;;
59308;SDS011;48433;53.016;-2.260;2023-05-25T05:44:31;12.60;;;4.63;;
59308;SDS011;48433;53.016;-2.260;2023-05-25T05:46:59;10.77;;;4.25;;
59308;SDS011;48433;53.016;-2.260;2023-05-25T05:49:29;14.73;;;4.40;;
59308;SDS011;48433;53.016;-2.260;2023-05-25T05:51:59;13.50;;;5.07;;
59308;SDS011;48433;53.016;-2.260;2023-05-25T05:54:27;19.27;;;5.32;;
59308;SDS011;48433;53.016;-2.260;2023-05-25T05:56:59;12.45;;;4.10;;
59308;SDS011;48433;53.016;-2.260;2023-05-25T05:59:27;15.48;;;4.53;;
59308;SDS011;48433;53.016;-2.260;2023-05-25T06:01:56;15.20;;;4.47;;
59308;SDS011;48433;53.016;-2.260;2023-05-25T06:04:23;12.30;;;4.28;;
59308;SDS011;48433;53.016;-2.260;2023-05-25T06:06:55;11.98;;;4.88;;
59308;SDS011;48433;53.016;-2.260;2023-05-25T06:09:23;14.70;;;3.83;;
59308;SDS011;48433;53.016;-2.260;2023-05-25T06:11:56;13.30;;;5.10;;
59308;SDS011;48433;53.016;-2.260;2023-05-25T06:14:24;13.90;;;4.43;;
59308;SDS011;48433;53.016;-2.260;2023-05-25T06:16:56;13.70;;;4.20;;
59308;SDS011;48433;53.016;-2.260;2023-05-25T06:19:24;15.02;;;5.20;;
59308;SDS011;48433;53.016;-2.260;2023-05-25T06:21:52;13.10;;;4.82;;
59308;SDS011;48433;53.016;-2.260;2023-05-25T06:24:20;12.82;;;4.55;;
59308;SDS011;48433;53.016;-2.260;2023-05-25T06:26:48;15.88;;;5.80;;
59308;SDS011;48433;53.016;-2.260;2023-05-25T06:29:17;14.63;;;5.15;;
59308;SDS011;48433;53.016;-2.260;2023-05-25T06:31:45;13.93;;;4.97;;
59308;SDS011;48433;53.016;-2.260;2023-05-25T06:34:12;13.77;;;4.68;;
59308;SDS011;48433;53.016;-2.260;2023-05-25T06:36:40;18.65;;;4.93;;
59308;SDS011;48433;53.016;-2.260;2023-05-25T06:39:09;12.45;;;5.03;;
59308;SDS011;48433;53.016;-2.260;2023-05-25T06:41:37;19.58;;;5.95;;
59308;SDS011;48433;53.016;-2.260;2023-05-25T06:44:05;13.45;;;6.07;;
59308;SDS011;48433;53.016;-2.260;2023-05-25T06:46:40;11.75;;;5.32;;
59308;SDS011;48433;53.016;-2.260;2023-05-25T06:49:09;15.52;;;6.05;;
59308;SDS011;48433;53.016;-2.260;2023-05-25T06:51:36;14.32;;;5.68;;
59308;SDS011;48433;53.016;-2.260;2023-05-25T06:54:04;16.85;;;6.22;;
59308;SDS011;48433;53.016;-2.260;2023-05-25T06:56:34;17.08;;;6.72;;
59308;SDS011;48433;53.016;-2.260;2023-05-25T06:59:02;22.88;;;7.18;;
59308;SDS011;48433;53.016;-2.260;2023-05-25T07:01:29;14.00;;;6.90;;
59308;SDS011;48433;53.016;-2.260;2023-05-25T07:03:57;16.63;;;6.32;;
59308;SDS011;48433;53.016;-2.260;2023-05-25T07:06:25;13.80;;;6.07;;
59308;SDS011;48433;53.016;-2.260;2023-05-25T07:08:52;12.73;;;6.88;;
59308;SDS011;48433;53.016;-2.260;2023-05-25T07:11:21;13.43;;;6.63;;
59308;SDS011;48433;53.016;-2.260;2023-05-25T07:13:49;16.83;;;6.75;;
59308;SDS011;48433;53.016;-2.260;2023-05-25T07:16:17;14.73;;;5.75;;
59308;SDS011;48433;53.016;-2.260;2023-05-25T07:18:45;14.75;;;7.45;;
59308;SDS011;48433;53.016;-2.260;2023-05-25T07:21:12;18.38;;;6.47;;
59308;SDS011;48433;53.016;-2.260;2023-05-25T07:23:40;11.55;;;6.30;;
59308;SDS011;48433;53.016;-2.260;2023-05-25T07:26:08;13.20;;;6.65;;
59308;SDS011;48433;53.016;-2.260;2023-05-25T07:28:35;13.63;;;6.43;;
59308;SDS011;48433;53.016;-2.260;2023-05-25T07:31:03;13.43;;;7.07;;
59308;SDS011;48433;53.016;-2.260;2023-05-25T07:33:31;16.35;;;6.00;;
59308;SDS011;48433;53.016;-2.260;2023-05-25T07:35:58;16.00;;;8.10;;
59308;SDS011;48433;53.016;-2.260;2023-05-25T07:38:26;17.77;;;6.90;;
59308;SDS011;48433;53.016;-2.260;2023-05-25T07:40:54;11.43;;;5.80;;
59308;SDS011;48433;53.016;-2.260;2023-05-25T07:43:22;12.73;;;6.47;;
59308;SDS011;48433;53.016;-2.260;2023-05-25T07:45:50;14.20;;;6.88;;
59308;SDS011;48433;53.016;-2.260;2023-05-25T07:48:18;15.43;;;6.80;;
59308;SDS011;48433;53.016;-2.260;2023-05-25T07:50:46;21.00;;;7.38;;
59308;SDS011;48433;53.016;-2.260;2023-05-25T07:53:13;12.63;;;6.30;;
59308;SDS011;48433;53.016;-2.260;2023-05-25T07:55:41;14.10;;;6.95;;
59308;SDS011;48433;53.016;-2.260;2023-05-25T07:58:09;12.18;;;6.22;;
59308;SDS011;48433;53.016;-2.260;2023-05-25T08:00:37;11.88;;;7.38;;
59308;SDS011;48433;53.016;-2.260;2023-05-25T08:03:04;16.27;;;6.93;;
59308;SDS011;48433;53.016;-2.260;2023-05-25T08:05:32;15.07;;;7.25;;
59308;SDS011;48433;53.016;-2.260;2023-05-25T08:08:00;18.42;;;7.18;;
59308;SDS011;48433;53.016;-2.260;2023-05-25T08:10:27;15.27;;;7.25;;
59308;SDS011;48433;53.016;-2.260;2023-05-25T08:12:58;13.02;;;6.40;;
59308;SDS011;48433;53.016;-2.260;2023-05-25T08:15:25;16.13;;;7.53;;
59308;SDS011;48433;53.016;-2.260;2023-05-25T08:17:53;13.60;;;7.72;;
59308;SDS011;48433;53.016;-2.260;2023-05-25T08:20:22;12.85;;;6.88;;
59308;SDS011;48433;53.016;-2.260;2023-05-25T08:22:54;17.92;;;7.22;;
59308;SDS011;48433;53.016;-2.260;2023-05-25T08:25:21;19.40;;;8.30;;
59308;SDS011;48433;53.016;-2.260;2023-05-25T08:27:49;15.77;;;7.47;;
59308;SDS011;48433;53.016;-2.260;2023-05-25T08:30:17;17.35;;;7.30;;
59308;SDS011;48433;53.016;-2.260;2023-05-25T08:32:44;18.35;;;8.18;;
59308;SDS011;48433;53.016;-2.260;2023-05-25T08:35:12;17.25;;;8.63;;
59308;SDS011;48433;53.016;-2.260;2023-05-25T08:37:40;16.90;;;7.50;;
59308;SDS011;48433;53.016;-2.260;2023-05-25T08:40:13;15.23;;;7.32;;
59308;SDS011;48433;53.016;-2.260;2023-05-25T08:42:42;16.98;;;8.27;;
59308;SDS011;48433;53.016;-2.260;2023-05-25T08:45:11;22.10;;;7.97;;
59308;SDS011;48433;53.016;-2.260;2023-05-25T08:47:59;23.67;;;9.40;;
59308;SDS011;48433;53.016;-2.260;2023-05-25T08:50:30;16.45;;;7.78;;
59308;SDS011;48433;53.016;-2.260;2023-05-25T08:53:00;15.95;;;8.70;;
59308;SDS011;48433;53.016;-2.260;2023-05-25T08:58:05;14.60;;;7.70;;
59308;SDS011;48433;53.016;-2.260;2023-05-25T09:00:41;12.25;;;7.20;;
59308;SDS011;48433;53.016;-2.260;2023-05-25T09:03:15;17.33;;;7.50;;
59308;SDS011;48433;53.016;-2.260;2023-05-25T09:05:47;13.20;;;6.70;;
59308;SDS011;48433;53.016;-2.260;2023-05-25T09:08:15;13.35;;;6.60;;
59308;SDS011;48433;53.016;-2.260;2023-05-25T09:10:43;19.70;;;7.10;;
59308;SDS011;48433;53.016;-2.260;2023-05-25T09:13:11;14.10;;;7.53;;
59308;SDS011;48433;53.016;-2.260;2023-05-25T09:15:49;18.48;;;7.13;;
59308;SDS011;48433;53.016;-2.260;2023-05-25T09:18:18;14.10;;;6.90;;
59308;SDS011;48433;53.016;-2.260;2023-05-25T09:20:46;17.25;;;7.90;;
59308;SDS011;48433;53.016;-2.260;2023-05-25T09:23:14;14.70;;;6.85;;
59308;SDS011;48433;53.016;-2.260;2023-05-25T09:25:42;18.08;;;6.22;;
59308;SDS011;48433;53.016;-2.260;2023-05-25T09:28:12;15.98;;;6.53;;
59308;SDS011;48433;53.016;-2.260;2023-05-25T09:30:52;14.57;;;6.90;;
59308;SDS011;48433;53.016;-2.260;2023-05-25T09:33:20;13.90;;;6.65;;
59308;SDS011;48433;53.016;-2.260;2023-05-25T09:35:48;13.27;;;6.65;;
59308;SDS011;48433;53.016;-2.260;2023-05-25T09:38:17;17.23;;;7.28;;
59308;SDS011;48433;53.016;-2.260;2023-05-25T09:40:45;14.65;;;7.35;;
59308;SDS011;48433;53.016;-2.260;2023-05-25T09:43:13;15.10;;;6.63;;
59308;SDS011;48433;53.016;-2.260;2023-05-25T09:45:58;13.27;;;6.72;;
59308;SDS011;48433;53.016;-2.260;2023-05-25T09:48:26;15.50;;;6.68;;
59308;SDS011;48433;53.016;-2.260;2023-05-25T09:50:55;17.63;;;6.97;;
59308;SDS011;48433;53.016;-2.260;2023-05-25T09:53:23;14.23;;;6.68;;
59308;SDS011;48433;53.016;-2.260;2023-05-25T09:55:52;15.20;;;6.60;;
59308;SDS011;48433;53.016;-2.260;2023-05-25T09:58:23;14.80;;;7.15;;
59308;SDS011;48433;53.016;-2.260;2023-05-25T10:00:53;16.65;;;7.03;;
59308;SDS011;48433;53.016;-2.260;2023-05-25T10:03:21;15.82;;;6.72;;
59308;SDS011;48433;53.016;-2.260;2023-05-25T10:05:49;13.73;;;6.40;;
59308;SDS011;48433;53.016;-2.260;2023-05-25T10:08:18;15.60;;;7.53;;
59308;SDS011;48433;53.016;-2.260;2023-05-25T10:10:47;14.32;;;7.50;;
59308;SDS011;48433;53.016;-2.260;2023-05-25T10:13:19;14.70;;;6.53;;
59308;SDS011;48433;53.016;-2.260;2023-05-25T10:15:52;13.70;;;6.88;;
59308;SDS011;48433;53.016;-2.260;2023-05-25T10:18:23;16.35;;;6.68;;
59308;SDS011;48433;53.016;-2.260;2023-05-25T10:20:56;15.63;;;6.20;;
59308;SDS011;48433;53.016;-2.260;2023-05-25T10:23:31;13.07;;;5.45;;
59308;SDS011;48433;53.016;-2.260;2023-05-25T10:26:07;13.88;;;6.30;;
59308;SDS011;48433;53.016;-2.260;2023-05-25T10:28:38;11.80;;;5.85;;
59308;SDS011;48433;53.016;-2.260;2023-05-25T10:31:10;15.23;;;6.15;;
59308;SDS011;48433;53.016;-2.260;2023-05-25T10:33:39;15.35;;;5.90;;
59308;SDS011;48433;53.016;-2.260;2023-05-25T10:36:07;10.90;;;5.60;;
59308;SDS011;48433;53.016;-2.260;2023-05-25T10:38:38;12.90;;;5.57;;
59308;SDS011;48433;53.016;-2.260;2023-05-25T10:41:07;13.43;;;5.90;;
59308;SDS011;48433;53.016;-2.260;2023-05-25T10:43:37;12.30;;;6.50;;
59308;SDS011;48433;53.016;-2.260;2023-05-25T10:46:06;12.10;;;6.20;;
59308;SDS011;48433;53.016;-2.260;2023-05-25T10:48:37;12.50;;;6.13;;
59308;SDS011;48433;53.016;-2.260;2023-05-25T10:51:06;18.50;;;7.13;;
59308;SDS011;48433;53.016;-2.260;2023-05-25T10:53:37;13.63;;;6.38;;
59308;SDS011;48433;53.016;-2.260;2023-05-25T10:56:09;20.50;;;6.18;;
59308;SDS011;48433;53.016;-2.260;2023-05-25T10:58:41;15.98;;;6.22;;
59308;SDS011;48433;53.016;-2.260;2023-05-25T11:01:11;15.80;;;6.55;;
59308;SDS011;48433;53.016;-2.260;2023-05-25T11:06:22;12.77;;;5.93;;
59308;SDS011;48433;53.016;-2.260;2023-05-25T11:09:26;16.50;;;5.65;;
59308;SDS011;48433;53.016;-2.260;2023-05-25T11:17:03;12.73;;;6.47;;
59308;SDS011;48433;53.016;-2.260;2023-05-25T11:19:49;19.60;;;6.90;;
59308;SDS011;48433;53.016;-2.260;2023-05-25T11:24:49;16.25;;;6.55;;
59308;SDS011;48433;53.016;-2.260;2023-05-25T11:27:28;17.30;;;6.05;;
59308;SDS011;48433;53.016;-2.260;2023-05-25T11:29:57;10.43;;;6.30;;
59308;SDS011;48433;53.016;-2.260;2023-05-25T11:32:26;18.73;;;7.03;;
59308;SDS011;48433;53.016;-2.260;2023-05-25T11:34:55;13.68;;;5.85;;
59308;SDS011;48433;53.016;-2.260;2023-05-25T11:37:25;16.92;;;6.30;;
59308;SDS011;48433;53.016;-2.260;2023-05-25T11:39:57;15.35;;;6.28;;
59308;SDS011;48433;53.016;-2.260;2023-05-25T11:42:25;10.20;;;5.25;;
59308;SDS011;48433;53.016;-2.260;2023-05-25T11:44:53;9.98;;;4.72;;
59308;SDS011;48433;53.016;-2.260;2023-05-25T11:47:22;14.75;;;5.00;;
59308;SDS011;48433;53.016;-2.260;2023-05-25T11:49:53;12.85;;;5.57;;
59308;SDS011;48433;53.016;-2.260;2023-05-25T11:52:21;20.60;;;6.53;;
59308;SDS011;48433;53.016;-2.260;2023-05-25T11:54:49;11.80;;;4.72;;
59308;SDS011;48433;53.016;-2.260;2023-05-25T11:57:20;14.73;;;4.88;;
59308;SDS011;48433;53.016;-2.260;2023-05-25T11:59:54;16.15;;;5.15;;
59308;SDS011;48433;53.016;-2.260;2023-05-25T12:02:23;16.60;;;5.50;;
59308;SDS011;48433;53.016;-2.260;2023-05-25T12:04:55;11.80;;;4.20;;
59308;SDS011;48433;53.016;-2.260;2023-05-25T12:07:26;11.98;;;4.60;;
59308;SDS011;48433;53.016;-2.260;2023-05-25T12:10:07;11.43;;;3.65;;
59308;SDS011;48433;53.016;-2.260;2023-05-25T12:12:43;15.23;;;5.07;;
59308;SDS011;48433;53.016;-2.260;2023-05-25T12:15:14;14.60;;;5.07;;
59308;SDS011;48433;53.016;-2.260;2023-05-25T12:17:47;9.43;;;4.07;;
59308;SDS011;48433;53.016;-2.260;2023-05-25T12:20:16;15.50;;;5.63;;
59308;SDS011;48433;53.016;-2.260;2023-05-25T12:22:45;12.65;;;4.40;;
59308;SDS011;48433;53.016;-2.260;2023-05-25T12:25:13;10.95;;;3.75;;
59308;SDS011;48433;53.016;-2.260;2023-05-25T12:30:12;11.07;;;3.70;;
59308;SDS011;48433;53.016;-2.260;2023-05-25T12:32:52;12.52;;;4.63;;
59308;SDS011;48433;53.016;-2.260;2023-05-25T12:35:21;12.15;;;4.38;;
59308;SDS011;48433;53.016;-2.260;2023-05-25T12:37:49;13.07;;;4.03;;
59308;SDS011;48433;53.016;-2.260;2023-05-25T12:40:20;9.40;;;4.22;;
59308;SDS011;48433;53.016;-2.260;2023-05-25T12:42:56;13.07;;;4.80;;
59308;SDS011;48433;53.016;-2.260;2023-05-25T12:45:24;13.45;;;4.35;;
59308;SDS011;48433;53.016;-2.260;2023-05-25T12:47:52;15.23;;;4.45;;
59308;SDS011;48433;53.016;-2.260;2023-05-25T12:50:19;9.38;;;3.90;;
59308;SDS011;48433;53.016;-2.260;2023-05-25T12:52:47;10.80;;;4.00;;
59308;SDS011;48433;53.016;-2.260;2023-05-25T12:57:49;14.10;;;4.43;;
59308;SDS011;48433;53.016;-2.260;2023-05-25T13:00:19;14.90;;;3.97;;
59308;SDS011;48433;53.016;-2.260;2023-05-25T13:02:48;13.05;;;4.68;;
59308;SDS011;48433;53.016;-2.260;2023-05-25T13:05:20;13.07;;;3.80;;
59308;SDS011;48433;53.016;-2.260;2023-05-25T13:10:16;12.38;;;4.30;;
59308;SDS011;48433;53.016;-2.260;2023-05-25T13:12:45;13.25;;;4.40;;
59308;SDS011;48433;53.016;-2.260;2023-05-25T13:15:14;10.05;;;4.10;;
59308;SDS011;48433;53.016;-2.260;2023-05-25T13:17:43;14.13;;;4.32;;
59308;SDS011;48433;53.016;-2.260;2023-05-25T13:20:14;10.82;;;4.38;;
59308;SDS011;48433;53.016;-2.260;2023-05-25T13:22:44;15.30;;;4.82;;
59308;SDS011;48433;53.016;-2.260;2023-05-25T13:25:13;11.23;;;4.05;;
59308;SDS011;48433;53.016;-2.260;2023-05-25T13:27:45;11.82;;;4.40;;
59308;SDS011;48433;53.016;-2.260;2023-05-25T13:30:15;13.77;;;4.53;;
59308;SDS011;48433;53.016;-2.260;2023-05-25T13:32:43;17.45;;;4.20;;
59308;SDS011;48433;53.016;-2.260;2023-05-25T13:35:11;14.05;;;4.72;;
59308;SDS011;48433;53.016;-2.260;2023-05-25T13:38:00;12.38;;;4.20;;
59308;SDS011;48433;53.016;-2.260;2023-05-25T13:40:27;14.80;;;4.65;;
59308;SDS011;48433;53.016;-2.260;2023-05-25T13:42:55;13.80;;;5.38;;
59308;SDS011;48433;53.016;-2.260;2023-05-25T13:45:23;14.65;;;5.30;;
59308;SDS011;48433;53.016;-2.260;2023-05-25T13:47:50;9.75;;;4.22;;
59308;SDS011;48433;53.016;-2.260;2023-05-25T13:50:18;11.77;;;4.53;;
59308;SDS011;48433;53.016;-2.260;2023-05-25T13:52:46;14.88;;;4.68;;
59308;SDS011;48433;53.016;-2.260;2023-05-25T13:55:15;14.60;;;4.80;;
59308;SDS011;48433;53.016;-2.260;2023-05-25T13:57:42;18.95;;;5.45;;
59308;SDS011;48433;53.016;-2.260;2023-05-25T14:00:10;12.27;;;4.57;;
59308;SDS011;48433;53.016;-2.260;2023-05-25T14:02:38;17.70;;;4.90;;
59308;SDS011;48433;53.016;-2.260;2023-05-25T14:05:06;12.18;;;4.28;;
59308;SDS011;48433;53.016;-2.260;2023-05-25T14:07:34;11.73;;;5.35;;
59308;SDS011;48433;53.016;-2.260;2023-05-25T14:10:02;14.43;;;5.25;;
59308;SDS011;48433;53.016;-2.260;2023-05-25T14:12:31;12.05;;;4.85;;
59308;SDS011;48433;53.016;-2.260;2023-05-25T14:14:59;13.35;;;5.32;;
59308;SDS011;48433;53.016;-2.260;2023-05-25T14:17:26;13.52;;;5.38;;
59308;SDS011;48433;53.016;-2.260;2023-05-25T14:19:54;16.83;;;5.80;;
59308;SDS011;48433;53.016;-2.260;2023-05-25T14:22:22;16.90;;;5.35;;
59308;SDS011;48433;53.016;-2.260;2023-05-25T14:24:49;14.75;;;6.50;;
59308;SDS011;48433;53.016;-2.260;2023-05-25T14:27:17;18.05;;;5.60;;
59308;SDS011;48433;53.016;-2.260;2023-05-25T14:29:47;12.52;;;4.97;;
59308;SDS011;48433;53.016;-2.260;2023-05-25T14:32:16;11.63;;;4.90;;
59308;SDS011;48433;53.016;-2.260;2023-05-25T14:34:45;13.43;;;5.30;;
59308;SDS011;48433;53.016;-2.260;2023-05-25T14:37:12;13.65;;;4.63;;
59308;SDS011;48433;53.016;-2.260;2023-05-25T14:39:40;15.50;;;5.05;;
59308;SDS011;48433;53.016;-2.260;2023-05-25T14:42:07;14.48;;;4.55;;
59308;SDS011;48433;53.016;-2.260;2023-05-25T14:44:35;14.68;;;4.93;;
59308;SDS011;48433;53.016;-2.260;2023-05-25T14:47:03;11.13;;;4.50;;
59308;SDS011;48433;53.016;-2.260;2023-05-25T14:49:31;12.43;;;4.75;;
59308;SDS011;48433;53.016;-2.260;2023-05-25T14:51:59;14.63;;;4.28;;
59308;SDS011;48433;53.016;-2.260;2023-05-25T14:54:26;13.57;;;4.75;;
59308;SDS011;48433;53.016;-2.260;2023-05-25T14:56:54;11.85;;;5.00;;
59308;SDS011;48433;53.016;-2.260;2023-05-25T14:59:22;14.63;;;5.13;;
59308;SDS011;48433;53.016;-2.260;2023-05-25T15:01:50;13.95;;;4.88;;
59308;SDS011;48433;53.016;-2.260;2023-05-25T15:04:17;18.42;;;5.10;;
59308;SDS011;48433;53.016;-2.260;2023-05-25T15:06:45;14.70;;;4.20;;
59308;SDS011;48433;53.016;-2.260;2023-05-25T15:09:13;16.23;;;4.72;;